createdAt,value
2018-08-16T00:01:24.735Z,21.75
2018-08-16T00:03:52.140Z,21.76
2018-08-16T00:06:19.617Z,21.76
2018-08-16T00:08:47.049Z,21.73
2018-08-16T00:11:14.735Z,21.72
2018-08-16T00:13:42.146Z,21.70
2018-08-16T00:16:09.605Z,21.65
2018-08-16T00:18:37.004Z,21.63
2018-08-16T00:21:04.472Z,21.63
2018-08-16T00:23:31.932Z,21.63
2018-08-16T00:25:59.399Z,21.60
2018-08-16T00:28:26.843Z,21.60
2018-08-16T00:30:54.295Z,21.62
2018-08-16T00:33:21.806Z,21.65
2018-08-16T00:35:49.268Z,21.68
2018-08-16T00:38:16.676Z,21.70
2018-08-16T00:40:44.129Z,21.66
2018-08-16T00:43:11.565Z,21.57
2018-08-16T00:45:39.028Z,21.56
2018-08-16T00:48:06.937Z,21.52
2018-08-16T00:50:34.355Z,21.48
2018-08-16T00:53:01.809Z,21.51
2018-08-16T00:55:29.579Z,21.49
2018-08-16T00:57:57.090Z,21.43
2018-08-16T01:00:24.481Z,21.41
2018-08-16T01:02:51.917Z,21.36
2018-08-16T01:05:19.435Z,21.36
2018-08-16T01:07:46.906Z,21.34
2018-08-16T01:10:14.344Z,21.31
2018-08-16T01:12:42.211Z,21.30
2018-08-16T01:15:09.617Z,21.33
2018-08-16T01:17:37.048Z,21.33
2018-08-16T01:20:04.503Z,21.30
2018-08-16T01:22:31.919Z,21.18
2018-08-16T01:24:59.350Z,21.08
2018-08-16T01:27:26.766Z,21.02
2018-08-16T01:29:54.186Z,21.00
2018-08-16T01:32:21.631Z,21.00
2018-08-16T01:34:49.083Z,20.94
2018-08-16T01:37:16.562Z,20.95
2018-08-16T01:39:43.988Z,20.93
2018-08-16T01:42:11.433Z,20.87
2018-08-16T01:44:38.897Z,20.86
2018-08-16T01:47:06.372Z,20.85
2018-08-16T01:49:33.844Z,20.81
2018-08-16T01:52:01.256Z,20.71
2018-08-16T01:54:28.756Z,20.59
2018-08-16T01:56:56.248Z,20.60
2018-08-16T01:59:23.731Z,20.62
2018-08-16T02:01:51.152Z,20.64
2018-08-16T02:04:18.546Z,20.69
2018-08-16T02:06:46.036Z,20.75
2018-08-16T02:09:13.496Z,20.74
2018-08-16T02:11:40.972Z,20.76
2018-08-16T02:14:08.376Z,20.82
2018-08-16T02:16:35.948Z,20.78
2018-08-16T02:19:03.345Z,20.71
2018-08-16T02:21:30.750Z,20.69
2018-08-16T02:23:58.221Z,20.68
2018-08-16T02:26:25.653Z,20.64
2018-08-16T02:28:53.166Z,20.60
2018-08-16T02:31:20.600Z,20.62
2018-08-16T02:33:48.059Z,20.61
2018-08-16T02:36:15.534Z,20.56
2018-08-16T02:38:42.942Z,20.52
2018-08-16T02:41:10.426Z,20.51
2018-08-16T02:43:37.841Z,20.46
2018-08-16T02:46:05.267Z,20.41
2018-08-16T02:48:32.711Z,20.40
2018-08-16T02:51:00.229Z,20.37
2018-08-16T02:53:27.604Z,20.34
2018-08-16T02:55:55.079Z,20.32
2018-08-16T02:58:22.549Z,20.27
2018-08-16T03:00:49.940Z,20.29
2018-08-16T03:03:17.346Z,20.29
2018-08-16T03:05:44.800Z,20.28
2018-08-16T03:08:12.248Z,20.23
2018-08-16T03:10:39.646Z,20.20
2018-08-16T03:13:07.076Z,20.13
2018-08-16T03:15:34.467Z,20.08
2018-08-16T03:18:01.958Z,20.02
2018-08-16T03:20:29.405Z,20.03
2018-08-16T03:22:56.843Z,20.02
2018-08-16T03:25:25.074Z,19.91
2018-08-16T03:27:52.497Z,19.85
2018-08-16T03:30:20.591Z,19.79
2018-08-16T03:32:48.036Z,19.76
2018-08-16T03:35:15.534Z,19.78
2018-08-16T03:37:43.005Z,19.77
2018-08-16T03:40:11.108Z,19.77
2018-08-16T03:42:38.582Z,19.79
2018-08-16T03:45:06.110Z,19.80
2018-08-16T03:47:33.548Z,19.82
2018-08-16T03:50:00.998Z,19.83
2018-08-16T03:52:28.435Z,19.87
2018-08-16T03:54:55.877Z,19.87
2018-08-16T03:57:23.322Z,19.89
2018-08-16T03:59:50.765Z,19.93
2018-08-16T04:02:18.170Z,19.94
2018-08-16T04:04:45.625Z,19.94
2018-08-16T04:07:13.152Z,19.94
2018-08-16T04:09:40.572Z,19.94
2018-08-16T04:12:08.002Z,19.95
2018-08-16T04:14:35.414Z,19.99
2018-08-16T04:17:02.868Z,20.02
2018-08-16T04:19:30.478Z,19.99
2018-08-16T04:21:58.470Z,19.98
2018-08-16T04:24:26.023Z,19.97
2018-08-16T04:26:53.456Z,19.95
2018-08-16T04:29:20.908Z,19.91
2018-08-16T04:31:48.364Z,19.88
2018-08-16T04:34:15.787Z,19.83
2018-08-16T04:36:43.215Z,19.80
2018-08-16T04:39:10.631Z,19.78
2018-08-16T04:41:38.141Z,19.61
2018-08-16T04:44:05.555Z,19.47
2018-08-16T04:46:33.026Z,19.49
2018-08-16T04:49:00.714Z,19.56
2018-08-16T04:51:28.194Z,19.60
2018-08-16T04:53:55.589Z,19.61
2018-08-16T04:56:23.051Z,19.63
2018-08-16T04:58:50.471Z,19.61
2018-08-16T05:01:17.866Z,19.64
2018-08-16T05:03:45.299Z,19.67
2018-08-16T05:06:12.719Z,19.69
2018-08-16T05:08:40.164Z,19.68
2018-08-16T05:11:07.658Z,19.68
2018-08-16T05:13:35.059Z,19.67
2018-08-16T05:16:02.502Z,19.74
2018-08-16T05:18:30.002Z,19.74
2018-08-16T05:20:57.476Z,19.78
2018-08-16T05:23:25.049Z,19.90
2018-08-16T05:25:52.517Z,20.01
2018-08-16T05:28:19.972Z,20.07
2018-08-16T05:30:47.424Z,20.18
2018-08-16T05:33:14.955Z,20.30
2018-08-16T05:35:42.377Z,20.41
2018-08-16T05:38:09.848Z,20.38
2018-08-16T05:40:37.286Z,20.42
2018-08-16T05:43:04.856Z,20.50
2018-08-16T05:45:32.338Z,20.62
2018-08-16T05:47:59.793Z,20.73
2018-08-16T05:50:27.275Z,20.77
2018-08-16T05:52:54.706Z,20.86
2018-08-16T05:55:22.381Z,20.97
2018-08-16T05:57:49.851Z,21.04
2018-08-16T06:00:17.309Z,21.08
2018-08-16T06:02:44.964Z,21.03
2018-08-16T06:05:12.378Z,21.06
2018-08-16T06:07:40.003Z,21.13
2018-08-16T06:10:07.331Z,21.20
2018-08-16T06:12:34.783Z,21.25
2018-08-16T06:15:02.235Z,21.38
2018-08-16T06:17:29.739Z,21.56
2018-08-16T06:19:57.222Z,21.84
2018-08-16T06:22:24.717Z,22.07
2018-08-16T06:24:52.176Z,22.30
2018-08-16T06:27:19.595Z,22.35
2018-08-16T06:29:47.005Z,22.25
2018-08-16T06:32:14.456Z,22.31
2018-08-16T06:34:41.909Z,22.59
2018-08-16T06:37:09.345Z,22.80
2018-08-16T06:39:36.832Z,22.99
2018-08-16T06:42:04.384Z,23.31
2018-08-16T06:44:31.876Z,23.68
2018-08-16T06:46:59.302Z,23.99
2018-08-16T06:49:26.824Z,24.16
2018-08-16T06:51:54.290Z,24.62
2018-08-16T06:54:22.615Z,24.90
2018-08-16T06:56:50.019Z,25.15
2018-08-16T06:59:17.463Z,25.60
2018-08-16T07:01:45.023Z,25.73
2018-08-16T07:04:12.449Z,25.80
2018-08-16T07:06:40.095Z,26.03
2018-08-16T07:09:07.536Z,26.16
2018-08-16T07:11:35.120Z,26.45
2018-08-16T07:14:02.859Z,26.80
2018-08-16T07:16:30.354Z,26.83
2018-08-16T07:18:57.921Z,26.61
2018-08-16T07:21:25.377Z,26.98
2018-08-16T07:23:52.823Z,27.13
2018-08-16T07:26:20.311Z,26.84
2018-08-16T07:28:47.820Z,26.86
2018-08-16T07:31:15.476Z,27.22
2018-08-16T07:33:43.017Z,27.48
2018-08-16T07:36:10.881Z,27.96
2018-08-16T07:38:38.415Z,28.47
2018-08-16T07:41:05.863Z,28.44
2018-08-16T07:43:33.338Z,28.69
2018-08-16T07:46:00.833Z,29.19
2018-08-16T07:48:28.324Z,29.18
2018-08-16T07:50:55.798Z,29.17
2018-08-16T07:53:23.216Z,29.37
2018-08-16T07:55:50.847Z,29.40
2018-08-16T07:58:18.346Z,29.47
2018-08-16T08:00:45.763Z,29.47
2018-08-16T08:03:13.241Z,29.65
2018-08-16T08:05:40.699Z,30.05
2018-08-16T08:08:08.109Z,30.29
2018-08-16T08:10:35.835Z,30.13
2018-08-16T08:13:03.458Z,30.03
2018-08-16T08:15:30.964Z,30.55
2018-08-16T08:17:57.868Z,30.87
2018-08-16T08:20:24.861Z,30.16
2018-08-16T08:22:51.856Z,29.71
2018-08-16T08:25:18.899Z,29.28
2018-08-16T08:27:46.574Z,28.91
2018-08-16T08:30:13.592Z,29.23
2018-08-16T08:32:41.184Z,29.00
2018-08-16T08:35:08.695Z,28.98
2018-08-16T08:37:47.926Z,29.50
2018-08-16T08:40:15.035Z,29.64
2018-08-16T08:42:42.104Z,29.59
2018-08-16T08:45:09.124Z,29.78
2018-08-16T08:47:36.084Z,29.80
2018-08-16T08:50:03.135Z,29.50
2018-08-16T08:52:30.265Z,29.72
2018-08-16T08:57:58.154Z,29.27
2018-08-16T09:00:25.237Z,28.93
2018-08-16T09:02:52.724Z,28.69
2018-08-16T09:05:20.162Z,28.66
2018-08-16T09:07:47.732Z,28.85
2018-08-16T09:10:26.987Z,28.88
2018-08-16T09:15:51.914Z,29.07
2018-08-16T09:18:19.384Z,29.09
2018-08-16T09:20:46.424Z,29.14
2018-08-16T09:23:13.473Z,29.02
2018-08-16T09:25:41.061Z,29.10
2018-08-16T09:28:08.097Z,29.20
2018-08-16T09:34:04.532Z,29.74
2018-08-16T09:36:31.611Z,29.50
2018-08-16T09:38:58.717Z,28.99
2018-08-16T09:41:26.862Z,29.00
2018-08-16T09:43:54.126Z,29.28
2018-08-16T09:46:26.858Z,29.40
2018-08-16T09:48:54.384Z,29.85
2018-08-16T09:51:21.821Z,29.72
2018-08-16T09:53:49.283Z,29.66
2018-08-16T09:56:16.747Z,29.52
2018-08-16T09:58:44.238Z,29.53
2018-08-16T10:01:11.725Z,29.88
2018-08-16T10:03:39.207Z,30.13
2018-08-16T10:06:06.679Z,30.19
2018-08-16T10:08:34.185Z,30.36
2018-08-16T10:11:01.603Z,30.38
2018-08-16T10:13:29.139Z,30.09
2018-08-16T10:15:56.551Z,30.18
2018-08-16T10:18:24.040Z,30.18
2018-08-16T10:20:51.640Z,29.99
2018-08-16T10:23:19.089Z,29.89
2018-08-16T10:25:46.720Z,30.10
2018-08-16T10:28:14.380Z,30.26
2018-08-16T10:30:41.823Z,30.29
2018-08-16T10:33:09.263Z,30.45
2018-08-16T10:35:36.682Z,30.49
2018-08-16T10:38:04.116Z,30.70
2018-08-16T10:40:31.115Z,30.67
2018-08-16T10:42:58.068Z,30.80
2018-08-16T10:45:25.517Z,31.03
2018-08-16T10:47:52.535Z,31.09
2018-08-16T10:50:19.544Z,31.15
2018-08-16T10:52:46.516Z,31.41
2018-08-16T10:55:13.644Z,31.32
2018-08-16T10:57:41.094Z,31.24
2018-08-16T11:00:08.585Z,31.35
2018-08-16T11:02:36.013Z,31.31
2018-08-16T11:05:03.580Z,31.48
2018-08-16T11:07:31.124Z,31.50
2018-08-16T11:09:58.520Z,31.15
2018-08-16T11:12:26.054Z,30.93
2018-08-16T11:14:53.175Z,30.87
2018-08-16T11:17:20.253Z,31.05
2018-08-16T11:19:47.239Z,31.11
2018-08-16T11:22:14.301Z,31.27
2018-08-16T11:24:41.283Z,31.19
2018-08-16T11:27:08.300Z,30.57
2018-08-16T11:29:35.358Z,30.47
2018-08-16T11:32:02.668Z,30.63
2018-08-16T11:34:29.680Z,30.96
2018-08-16T11:36:56.823Z,30.97
2018-08-16T11:39:23.850Z,30.98
2018-08-16T11:41:50.900Z,31.01
2018-08-16T11:44:17.863Z,31.16
2018-08-16T11:46:44.863Z,31.42
2018-08-16T11:49:11.824Z,31.43
2018-08-16T11:51:39.287Z,31.34
2018-08-16T11:54:06.733Z,31.46
2018-08-16T11:56:34.205Z,31.68
2018-08-16T11:59:02.283Z,31.41
2018-08-16T12:01:29.912Z,31.10
2018-08-16T12:03:56.896Z,31.23
2018-08-16T12:06:24.373Z,31.26
2018-08-16T12:08:51.801Z,31.46
2018-08-16T12:11:19.285Z,31.58
2018-08-16T12:13:46.759Z,31.60
2018-08-16T12:16:14.150Z,31.42
2018-08-16T12:18:41.179Z,31.57
2018-08-16T12:21:08.761Z,31.86
2018-08-16T12:23:35.820Z,32.26
2018-08-16T12:26:02.777Z,32.38
2018-08-16T12:28:29.788Z,32.54
2018-08-16T12:30:56.883Z,32.37
2018-08-16T12:33:24.040Z,32.31
2018-08-16T12:35:51.029Z,32.43
2018-08-16T12:38:18.468Z,32.47
2018-08-16T12:40:45.905Z,32.66
2018-08-16T12:43:13.319Z,32.74
2018-08-16T12:45:40.760Z,32.57
2018-08-16T12:48:08.209Z,32.32
2018-08-16T12:50:35.677Z,32.66
2018-08-16T12:53:02.684Z,33.37
2018-08-16T12:55:29.719Z,33.22
2018-08-16T12:57:56.954Z,32.48
2018-08-16T13:00:23.960Z,32.30
2018-08-16T13:02:50.985Z,32.34
2018-08-16T13:05:17.930Z,32.97
2018-08-16T13:07:45.369Z,33.32
2018-08-16T13:10:12.357Z,33.30
2018-08-16T13:12:39.363Z,33.46
2018-08-16T13:15:06.433Z,33.17
2018-08-16T13:17:33.380Z,32.78
2018-08-16T13:20:00.420Z,32.68
2018-08-16T13:22:27.413Z,32.62
2018-08-16T13:24:54.466Z,32.91
2018-08-16T13:29:54.831Z,33.10
2018-08-16T13:32:21.855Z,33.11
2018-08-16T13:34:48.835Z,33.02
2018-08-16T13:37:15.952Z,33.14
2018-08-16T13:39:43.022Z,33.14
2018-08-16T13:42:10.043Z,33.60
2018-08-16T13:44:37.121Z,33.85
2018-08-16T13:47:04.109Z,33.97
2018-08-16T13:49:31.579Z,33.86
2018-08-16T13:51:58.550Z,33.69
2018-08-16T13:54:25.534Z,33.87
2018-08-16T13:56:52.882Z,33.83
2018-08-16T13:59:19.909Z,33.40
2018-08-16T14:01:46.936Z,33.45
2018-08-16T14:04:13.856Z,33.68
2018-08-16T14:06:41.934Z,34.05
2018-08-16T14:09:09.465Z,33.97
2018-08-16T14:11:36.456Z,34.28
2018-08-16T14:14:03.404Z,34.30
2018-08-16T14:16:30.380Z,34.09
2018-08-16T14:18:57.417Z,33.84
2018-08-16T14:21:25.182Z,34.15
2018-08-16T14:23:52.192Z,34.23
2018-08-16T14:26:19.201Z,34.39
2018-08-16T14:28:46.213Z,34.50
2018-08-16T14:31:13.202Z,34.15
2018-08-16T14:33:40.196Z,33.88
2018-08-16T14:36:07.215Z,34.05
2018-08-16T14:38:34.253Z,34.12
2018-08-16T14:41:01.308Z,34.15
2018-08-16T14:43:28.291Z,34.06
2018-08-16T14:45:55.319Z,34.12
2018-08-16T14:48:22.349Z,34.33
2018-08-16T14:50:49.333Z,34.54
2018-08-16T14:53:16.442Z,34.23
2018-08-16T14:55:43.472Z,34.25
2018-08-16T14:58:10.497Z,34.19
2018-08-16T15:00:37.702Z,34.46
2018-08-16T15:03:04.756Z,34.40
2018-08-16T15:05:31.889Z,34.54
2018-08-16T15:07:59.315Z,34.77
2018-08-16T15:10:26.765Z,34.61
2018-08-16T15:12:54.337Z,34.44
2018-08-16T15:15:21.797Z,34.48
2018-08-16T15:17:49.292Z,34.44
2018-08-16T15:20:16.699Z,34.47
2018-08-16T15:22:44.477Z,34.37
2018-08-16T15:25:11.901Z,34.41
2018-08-16T15:27:39.318Z,34.22
2018-08-16T15:30:06.778Z,33.78
2018-08-16T15:32:34.259Z,33.82
2018-08-16T15:35:01.982Z,33.74
2018-08-16T15:37:29.637Z,33.76
2018-08-16T15:39:57.017Z,33.33
2018-08-16T15:42:24.098Z,33.26
2018-08-16T15:44:51.041Z,33.53
2018-08-16T15:47:18.001Z,33.66
2018-08-16T15:49:45.028Z,33.71
2018-08-16T15:52:12.099Z,33.76
2018-08-16T15:54:39.044Z,33.72
2018-08-16T15:57:06.494Z,33.68
2018-08-16T15:59:33.964Z,33.75
2018-08-16T16:02:01.404Z,33.80
2018-08-16T16:04:29.347Z,33.68
2018-08-16T16:06:56.816Z,33.65
2018-08-16T16:09:24.240Z,33.70
2018-08-16T16:11:51.682Z,33.74
2018-08-16T16:14:18.692Z,33.61
2018-08-16T16:16:45.662Z,33.36
2018-08-16T16:19:13.109Z,33.27
2018-08-16T16:21:40.159Z,33.41
2018-08-16T16:24:08.304Z,33.46
2018-08-16T16:26:35.780Z,33.39
2018-08-16T16:29:03.258Z,33.32
2018-08-16T16:31:30.742Z,33.24
2018-08-16T16:33:58.210Z,32.97
2018-08-16T16:36:25.647Z,32.88
2018-08-16T16:38:53.129Z,32.67
2018-08-16T16:41:20.416Z,32.30
2018-08-16T16:43:47.472Z,32.11
2018-08-16T16:46:14.433Z,31.98
2018-08-16T16:48:41.525Z,31.88
2018-08-16T16:51:08.927Z,31.60
2018-08-16T16:53:36.397Z,31.36
2018-08-16T16:56:03.802Z,31.29
2018-08-16T16:58:31.320Z,31.30
2018-08-16T17:01:00.189Z,31.27
2018-08-16T17:03:27.592Z,31.32
2018-08-16T17:05:55.037Z,31.15
2018-08-16T17:08:22.490Z,30.87
2018-08-16T17:10:50.518Z,30.67
2018-08-16T17:13:17.969Z,30.71
2018-08-16T17:15:45.435Z,30.79
2018-08-16T17:18:13.025Z,30.88
2018-08-16T17:20:40.472Z,30.80
2018-08-16T17:23:07.954Z,30.64
2018-08-16T17:25:35.393Z,30.48
2018-08-16T17:28:02.958Z,30.31
2018-08-16T17:30:30.427Z,30.33
2018-08-16T17:32:57.888Z,30.39
2018-08-16T17:35:25.394Z,30.33
2018-08-16T17:37:52.882Z,30.26
2018-08-16T17:40:20.340Z,30.27
2018-08-16T17:42:47.787Z,30.13
2018-08-16T17:45:15.232Z,29.98
2018-08-16T17:47:42.660Z,29.93
2018-08-16T17:50:10.064Z,29.85
2018-08-16T17:52:37.563Z,29.80
2018-08-16T17:55:04.999Z,29.77
2018-08-16T17:57:32.466Z,29.60
2018-08-16T17:59:59.949Z,29.37
2018-08-16T18:02:27.352Z,29.22
2018-08-16T18:04:54.878Z,29.14
2018-08-16T18:07:22.361Z,28.97
2018-08-16T18:09:49.845Z,28.85
2018-08-16T18:12:17.342Z,28.71
2018-08-16T18:14:44.739Z,28.51
2018-08-16T18:17:12.229Z,28.40
2018-08-16T18:19:39.216Z,28.17
2018-08-16T18:22:06.367Z,28.04
2018-08-16T18:24:33.783Z,27.89
2018-08-16T18:27:01.226Z,27.86
2018-08-16T18:29:28.219Z,27.90
2018-08-16T18:31:56.315Z,27.80
2018-08-16T18:34:23.792Z,27.78
2018-08-16T18:36:51.316Z,27.72
2018-08-16T18:39:19.629Z,27.75
2018-08-16T18:41:47.050Z,27.78
2018-08-16T18:44:14.496Z,27.62
2018-08-16T18:46:41.973Z,27.60
2018-08-16T18:49:09.481Z,27.61
2018-08-16T18:51:36.933Z,27.64
2018-08-16T18:54:04.387Z,27.54
2018-08-16T18:56:31.781Z,27.44
2018-08-16T18:58:59.313Z,27.39
2018-08-16T19:01:27.150Z,27.36
2018-08-16T19:03:54.542Z,27.39
2018-08-16T19:06:22.012Z,27.30
2018-08-16T19:08:49.419Z,27.19
2018-08-16T19:11:16.863Z,27.15
2018-08-16T19:13:45.675Z,27.18
2018-08-16T19:16:13.147Z,27.11
2018-08-16T19:18:40.693Z,27.09
2018-08-16T19:21:08.088Z,27.04
2018-08-16T19:23:35.502Z,26.94
2018-08-16T19:26:02.977Z,26.89
2018-08-16T19:28:30.008Z,26.94
2018-08-16T19:30:57.547Z,27.01
2018-08-16T19:33:25.028Z,27.05
2018-08-16T19:35:52.576Z,26.99
2018-08-16T19:38:19.558Z,26.94
2018-08-16T19:40:47.051Z,26.91
2018-08-16T19:43:14.521Z,26.83
2018-08-16T19:45:42.238Z,26.68
2018-08-16T19:48:09.880Z,26.67
2018-08-16T19:50:37.237Z,26.61
2018-08-16T19:53:04.679Z,26.55
2018-08-16T19:55:32.187Z,26.45
2018-08-16T19:58:00.144Z,26.38
2018-08-16T20:00:27.600Z,26.38
2018-08-16T20:02:55.061Z,26.40
2018-08-16T20:05:22.601Z,26.40
2018-08-16T20:07:50.145Z,26.45
2018-08-16T20:10:17.626Z,26.51
2018-08-16T20:12:45.071Z,26.53
2018-08-16T20:15:12.517Z,26.53
2018-08-16T20:17:39.966Z,26.55
2018-08-16T20:20:07.452Z,26.61
2018-08-16T20:22:35.138Z,26.56
2018-08-16T20:25:02.587Z,26.43
2018-08-16T20:27:29.998Z,26.27
2018-08-16T20:29:57.493Z,26.19
2018-08-16T20:32:24.968Z,26.19
2018-08-16T20:34:52.507Z,26.07
2018-08-16T20:37:19.908Z,25.99
2018-08-16T20:39:47.390Z,25.93
2018-08-16T20:42:14.876Z,25.87
2018-08-16T20:44:42.281Z,25.92
2018-08-16T20:47:10.477Z,25.98
2018-08-16T20:49:37.920Z,26.04
2018-08-16T20:52:05.374Z,26.04
2018-08-16T20:54:32.863Z,26.07
2018-08-16T20:57:00.302Z,26.08
2018-08-16T20:59:27.853Z,26.06
2018-08-16T21:01:55.796Z,26.01
2018-08-16T21:04:23.464Z,25.89
2018-08-16T21:06:50.894Z,25.81
2018-08-16T21:09:18.518Z,25.73
2018-08-16T21:11:45.984Z,25.67
2018-08-16T21:14:13.409Z,25.66
2018-08-16T21:16:40.883Z,25.64
2018-08-16T21:19:08.340Z,25.67
2018-08-16T21:21:35.842Z,25.69
2018-08-16T21:24:03.229Z,25.66
2018-08-16T21:26:30.629Z,25.62
2018-08-16T21:28:58.230Z,25.53
2018-08-16T21:31:25.743Z,25.49
2018-08-16T21:33:53.344Z,25.48
2018-08-16T21:36:20.803Z,25.49
2018-08-16T21:38:48.239Z,25.41
2018-08-16T21:41:15.733Z,25.30
2018-08-16T21:43:43.204Z,25.34
2018-08-16T21:46:10.667Z,25.35
2018-08-16T21:48:38.187Z,25.34
2018-08-16T21:51:05.651Z,25.31
2018-08-16T21:53:33.092Z,25.24
2018-08-16T21:56:00.553Z,25.21
2018-08-16T21:58:28.013Z,25.21
2018-08-16T22:00:55.579Z,25.24
2018-08-16T22:03:23.113Z,25.25
2018-08-16T22:05:50.707Z,25.23
2018-08-16T22:08:18.067Z,25.21
2018-08-16T22:10:45.552Z,25.16
2018-08-16T22:13:12.985Z,25.15
2018-08-16T22:15:39.921Z,25.13
2018-08-16T22:18:08.018Z,25.08
2018-08-16T22:20:35.476Z,24.97
2018-08-16T22:23:03.400Z,24.94
2018-08-16T22:25:30.894Z,24.93
2018-08-16T22:27:58.297Z,24.93
2018-08-16T22:30:25.715Z,24.95
2018-08-16T22:32:53.121Z,24.97
2018-08-16T22:35:20.536Z,24.95
2018-08-16T22:37:48.019Z,24.95
2018-08-16T22:40:15.469Z,24.96
2018-08-16T22:42:42.958Z,24.89
2018-08-16T22:45:10.496Z,24.82
2018-08-16T22:47:37.974Z,24.69
2018-08-16T22:50:05.548Z,24.49
2018-08-16T22:52:32.624Z,24.30
2018-08-16T22:54:59.661Z,24.30
2018-08-16T22:57:26.729Z,24.32
2018-08-16T22:59:53.750Z,24.35
2018-08-16T23:02:20.751Z,24.35
2018-08-16T23:04:48.391Z,24.36
2018-08-16T23:07:15.835Z,24.31
2018-08-16T23:09:42.816Z,24.30
2018-08-16T23:12:10.293Z,24.29
2018-08-16T23:14:37.861Z,24.31
2018-08-16T23:17:05.270Z,24.33
2018-08-16T23:19:32.786Z,24.31
2018-08-16T23:22:00.301Z,24.31
2018-08-16T23:24:27.829Z,24.33
2018-08-16T23:26:55.646Z,24.35
2018-08-16T23:29:23.093Z,24.34
2018-08-16T23:31:50.625Z,24.31
2018-08-16T23:34:18.078Z,24.22
2018-08-16T23:39:15.308Z,24.05
2018-08-16T23:41:42.770Z,23.93
2018-08-16T23:44:10.537Z,23.79
2018-08-16T23:46:38.129Z,23.70
2018-08-16T23:49:05.587Z,23.71
2018-08-16T23:51:33.285Z,23.79
2018-08-16T23:54:00.821Z,23.66
2018-08-16T23:56:28.293Z,23.57
2018-08-16T23:58:55.767Z,23.50
